Time;durP1;ratioP1;P1;durP2;ratioP2;P2;SDS_P1;SDS_P2;PMS_P1;PMS_P2;Temp;Humidity;BMP_temperature;BMP_pressure;BME280_temperature;BME280_humidity;BME280_pressure;Samples;Min_cycle;Max_cycle;Signal;HPM_P1;HPM_P2
2023/12/17 00:02:23;;;;;;;28.67;16.20;;;;;;;12.37;79.09;102985.13;5084259;27;96844;-79
2023/12/17 00:04:49;;;;;;;34.58;16.00;;;;;;;12.34;79.63;102993.97;5089627;27;99270;-78
2023/12/17 00:07:16;;;;;;;32.13;16.98;;;;;;;12.07;80.47;103009.19;5082903;27;99343;-79
2023/12/17 00:09:43;;;;;;;31.67;16.92;;;;;;;12.33;80.09;103007.25;5090270;27;97260;-81
2023/12/17 00:12:11;;;;;;;30.70;17.33;;;;;;;12.32;79.98;103009.03;5081521;27;96843;-79
2023/12/17 00:14:37;;;;;;;33.50;16.38;;;;;;;12.62;78.48;103012.31;5089858;27;101347;-81
2023/12/17 00:17:04;;;;;;;32.15;16.75;;;;;;;12.60;78.44;103012.31;5089917;27;98085;-80
2023/12/17 00:19:30;;;;;;;33.05;16.63;;;;;;;12.47;78.82;103001.84;5087704;27;97050;-79
2023/12/17 00:21:57;;;;;;;29.48;15.38;;;;;;;12.05;81.02;103003.00;5078858;27;97028;-78
2023/12/17 00:24:23;;;;;;;30.52;15.40;;;;;;;12.24;80.02;103016.13;5079183;27;99155;-78
2023/12/17 00:26:50;;;;;;;29.80;15.75;;;;;;;12.13;80.31;103002.06;5086259;27;100082;-80
2023/12/17 00:29:17;;;;;;;36.70;17.40;;;;;;;12.33;79.96;103001.94;5079329;27;97066;-79
2023/12/17 00:31:44;;;;;;;29.35;16.15;;;;;;;12.47;79.47;102996.53;5084859;27;97389;-78
2023/12/17 00:34:10;;;;;;;27.10;17.02;;;;;;;12.67;78.26;102997.22;5080540;27;100147;-78
2023/12/17 00:36:37;;;;;;;32.78;16.35;;;;;;;12.77;77.22;102996.28;5085204;27;97601;-79
2023/12/17 00:39:04;;;;;;;32.10;16.95;;;;;;;12.88;76.75;102988.19;5088090;27;96774;-75
2023/12/17 00:41:31;;;;;;;30.63;16.13;;;;;;;12.88;76.50;102982.91;5081468;27;97323;-75
2023/12/17 00:43:58;;;;;;;28.45;16.05;;;;;;;12.42;79.15;102975.34;5086260;27;99482;-75
2023/12/17 00:46:25;;;;;;;26.20;15.25;;;;;;;12.21;80.79;102981.69;5081442;27;98842;-75
2023/12/17 00:48:52;;;;;;;24.35;15.63;;;;;;;12.24;80.65;102988.75;5082005;27;96859;-75
2023/12/17 00:51:19;;;;;;;27.23;16.30;;;;;;;12.20;80.69;102985.25;5079940;27;97799;-74
2023/12/17 00:53:45;;;;;;;31.25;16.65;;;;;;;12.34;80.11;102980.69;5078914;27;97956;-75
2023/12/17 00:56:12;;;;;;;30.80;16.58;;;;;;;11.85;82.70;102981.91;5082806;27;101498;-75
2023/12/17 00:58:38;;;;;;;29.92;16.60;;;;;;;12.34;80.45;102979.81;5085135;27;97208;-76
2023/12/17 01:01:05;;;;;;;30.95;15.65;;;;;;;12.18;80.63;102983.50;5078336;27;97353;-78
2023/12/17 01:03:32;;;;;;;30.52;15.88;;;;;;;12.42;79.59;102998.31;5087895;27;99023;-76
2023/12/17 01:05:59;;;;;;;28.88;16.17;;;;;;;12.16;81.16;103002.03;5080210;27;99165;-76
2023/12/17 01:08:25;;;;;;;33.90;19.02;;;;;;;12.17;81.22;103009.09;5079151;27;97158;-77
2023/12/17 01:10:51;;;;;;;31.67;15.68;;;;;;;12.33;80.37;103001.94;5078548;27;98317;-77
2023/12/17 01:13:18;;;;;;;30.88;16.33;;;;;;;12.07;82.01;102993.28;5081540;27;99375;-76
2023/12/17 01:15:44;;;;;;;25.88;15.25;;;;;;;12.21;81.20;102994.06;5084081;27;98792;-77
2023/12/17 01:18:11;;;;;;;29.67;15.50;;;;;;;12.19;81.44;103004.69;5076579;27;97494;-76
2023/12/17 01:20:40;;;;;;;28.02;16.02;;;;;;;12.11;81.69;103008.25;5087292;27;96894;-76
2023/12/17 01:23:06;;;;;;;30.38;16.00;;;;;;;12.46;80.28;103013.34;5082679;27;98990;-76
2023/12/17 01:25:32;;;;;;;30.35;16.92;;;;;;;12.65;79.09;103009.66;5078416;27;97716;-77
2023/12/17 01:27:59;;;;;;;28.02;16.55;;;;;;;12.55;79.27;103013.25;5073575;27;96891;-76
2023/12/17 01:30:25;;;;;;;24.80;15.68;;;;;;;12.76;78.67;103008.66;5085316;27;97225;-76
2023/12/17 01:32:52;;;;;;;29.50;16.55;;;;;;;12.74;79.00;103007.78;5073418;27;98964;-75
2023/12/17 01:35:18;;;;;;;27.58;15.18;;;;;;;12.82;78.55;103007.72;5077248;27;97474;-75
2023/12/17 01:37:46;;;;;;;31.65;15.93;;;;;;;12.54;78.84;102999.09;5082935;27;97101;-76
2023/12/17 01:40:12;;;;;;;31.42;16.33;;;;;;;12.40;80.15;103003.66;5085096;27;100239;-76
2023/12/17 01:42:39;;;;;;;31.70;16.92;;;;;;;12.59;79.31;103007.06;5086361;27;101618;-76
2023/12/17 01:45:06;;;;;;;26.60;15.60;;;;;;;12.49;79.82;103014.19;5082109;27;98999;-76
2023/12/17 01:47:33;;;;;;;26.70;15.75;;;;;;;12.04;82.35;103018.03;5082132;27;100523;-75
2023/12/17 01:49:59;;;;;;;29.10;15.75;;;;;;;12.26;82.18;103018.78;5080976;27;96808;-75
2023/12/17 01:52:25;;;;;;;27.42;16.15;;;;;;;12.38;80.68;103019.56;5073114;27;98972;-75
2023/12/17 01:54:53;;;;;;;27.52;16.27;;;;;;;12.51;80.38;103014.19;5073371;27;100709;-74
2023/12/17 01:57:20;;;;;;;31.00;18.70;;;;;;;12.44;81.02;103015.13;5083358;27;96957;-74
2023/12/17 01:59:48;;;;;;;27.60;16.63;;;;;;;12.65;79.84;103018.50;5076142;27;97048;-78
2023/12/17 02:02:15;;;;;;;30.20;17.85;;;;;;;12.64;79.62;103015.84;5074255;27;97031;-77
2023/12/17 02:04:43;;;;;;;30.92;16.67;;;;;;;12.72;79.27;103020.19;5077859;27;98679;-77
2023/12/17 02:07:09;;;;;;;28.17;16.63;;;;;;;13.08;77.76;103026.03;5081802;27;100493;-76
2023/12/17 02:09:36;;;;;;;26.08;15.63;;;;;;;13.10;77.42;103018.97;5086027;27;97341;-76
2023/12/17 02:12:04;;;;;;;30.30;16.55;;;;;;;12.75;78.66;103028.13;5083012;27;97876;-76
2023/12/17 02:14:31;;;;;;;28.67;17.05;;;;;;;12.89;78.69;103020.03;5083048;27;98940;-76
2023/12/17 02:16:57;;;;;;;29.02;16.25;;;;;;;12.78;78.53;103017.50;5077367;27;97109;-76
2023/12/17 02:19:24;;;;;;;29.73;15.80;;;;;;;12.56;79.99;103007.94;5078748;27;98787;-76
2023/12/17 02:21:50;;;;;;;29.52;16.65;;;;;;;12.42;80.77;103023.06;5080222;27;97495;-76
2023/12/17 02:24:18;;;;;;;31.15;17.10;;;;;;;12.47;80.81;103018.59;5081135;27;97737;-76
2023/12/17 02:26:44;;;;;;;30.10;16.60;;;;;;;12.56;80.70;103025.63;5084287;27;96807;-76
2023/12/17 02:29:11;;;;;;;25.73;16.33;;;;;;;12.57;80.18;103024.75;5081540;27;96956;-76
2023/12/17 02:31:37;;;;;;;28.17;16.60;;;;;;;12.65;80.10;103025.56;5078316;27;98912;-78
2023/12/17 02:34:04;;;;;;;29.63;15.73;;;;;;;12.70;79.51;103021.09;5087801;27;97790;-76
2023/12/17 02:36:30;;;;;;;24.88;15.85;;;;;;;12.81;79.37;103024.53;5084906;27;97103;-78
2023/12/17 02:38:57;;;;;;;23.92;15.45;;;;;;;12.98;78.09;103022.63;5078035;27;98661;-77
2023/12/17 02:41:24;;;;;;;25.13;15.38;;;;;;;12.74;79.16;103029.00;5079487;27;99285;-76
2023/12/17 02:43:51;;;;;;;29.38;17.10;;;;;;;12.88;78.93;103028.88;5081853;27;99270;-75
2023/12/17 02:46:17;;;;;;;25.05;15.40;;;;;;;12.93;78.47;103027.06;5081414;27;96752;-75
2023/12/17 02:48:44;;;;;;;30.25;15.75;;;;;;;12.67;79.83;103015.81;5081546;27;97017;-77
2023/12/17 02:51:10;;;;;;;25.65;15.93;;;;;;;12.62;80.14;103017.63;5080072;27;98738;-76
2023/12/17 02:53:37;;;;;;;23.65;15.27;;;;;;;12.38;81.38;103011.63;5083641;27;99052;-75
2023/12/17 02:56:03;;;;;;;26.75;15.00;;;;;;;12.50;80.92;103001.81;5076103;27;96831;-76
2023/12/17 02:58:31;;;;;;;23.42;15.38;;;;;;;12.60;80.81;103012.31;5077418;27;97581;-75
2023/12/17 03:00:57;;;;;;;25.88;15.30;;;;;;;12.60;80.61;103008.81;5082534;27;97838;-75
2023/12/17 03:03:24;;;;;;;26.67;16.80;;;;;;;12.54;81.51;103007.06;5082029;27;101953;-75
2023/12/17 03:05:50;;;;;;;24.92;15.23;;;;;;;12.88;79.65;103012.97;5083657;27;96969;-76
2023/12/17 03:08:17;;;;;;;28.60;15.98;;;;;;;12.72;80.14;103004.28;5086917;27;96827;-76
2023/12/17 03:10:43;;;;;;;28.23;15.27;;;;;;;12.92;79.56;103004.09;5076069;27;98224;-76
2023/12/17 03:13:10;;;;;;;26.42;14.57;;;;;;;12.82;79.74;103010.38;5084324;27;98705;-76
2023/12/17 03:15:38;;;;;;;24.17;15.68;;;;;;;12.97;79.25;103004.03;5080090;27;97698;-72
2023/12/17 03:18:04;;;;;;;25.67;15.68;;;;;;;12.95;78.79;103011.13;5079211;27;97062;-75
2023/12/17 03:20:31;;;;;;;24.95;15.55;;;;;;;12.82;79.73;103002.41;5090545;27;99120;-78
2023/12/17 03:22:58;;;;;;;24.88;15.60;;;;;;;12.47;81.93;103001.84;5084381;27;99309;-77
2023/12/17 03:25:24;;;;;;;25.52;14.77;;;;;;;12.65;81.12;103001.69;5079215;27;97073;-78
2023/12/17 03:27:51;;;;;;;26.35;15.45;;;;;;;12.83;80.27;103004.19;5088784;27;99209;-77
2023/12/17 03:30:17;;;;;;;23.27;14.80;;;;;;;12.93;79.73;102997.88;5083152;27;98909;-78
2023/12/17 03:32:45;;;;;;;25.08;14.98;;;;;;;12.88;79.84;103005.00;5075335;27;97709;-78
2023/12/17 03:35:11;;;;;;;26.45;15.55;;;;;;;12.97;79.44;103002.28;5078094;27;97246;-78
2023/12/17 03:37:38;;;;;;;24.60;15.20;;;;;;;12.91;79.89;103007.66;5077411;27;97234;-77
2023/12/17 03:40:06;;;;;;;26.33;14.85;;;;;;;13.05;79.07;102999.56;5082221;27;97495;-77
2023/12/17 03:42:32;;;;;;;25.38;16.00;;;;;;;12.77;80.38;103002.47;5084342;27;102439;-79
2023/12/17 03:44:58;;;;;;;24.20;14.98;;;;;;;12.93;79.93;103007.63;5089836;27;96875;-77
2023/12/17 03:47:25;;;;;;;23.30;15.25;;;;;;;12.76;80.56;102997.16;5081643;27;96792;-78
2023/12/17 03:49:53;;;;;;;24.23;15.52;;;;;;;12.98;79.91;102997.84;5081447;27;101283;-77
2023/12/17 03:52:19;;;;;;;27.95;15.60;;;;;;;13.19;78.83;103002.97;5082628;27;102044;-77
2023/12/17 03:54:46;;;;;;;24.55;15.77;;;;;;;12.92;79.90;103009.41;5091639;27;97242;-77
2023/12/17 03:57:12;;;;;;;30.70;16.77;;;;;;;13.01;79.70;103001.34;5089241;27;96978;-77
2023/12/17 03:59:39;;;;;;;24.60;15.77;;;;;;;12.75;80.80;103008.66;5086960;27;97804;-77
2023/12/17 04:02:05;;;;;;;26.65;15.30;;;;;;;12.84;80.96;103003.28;5085679;27;98725;-78
2023/12/17 04:04:32;;;;;;;23.02;15.10;;;;;;;12.91;80.45;103006.75;5077910;27;96920;-76
2023/12/17 04:07:00;;;;;;;23.75;15.32;;;;;;;12.82;80.91;103002.41;5079981;27;97290;-77
2023/12/17 04:09:26;;;;;;;27.33;15.40;;;;;;;12.87;80.64;103005.00;5086891;27;102175;-78
2023/12/17 04:11:52;;;;;;;27.67;16.00;;;;;;;13.13;79.57;103003.00;5081469;27;98803;-77
2023/12/17 04:14:19;;;;;;;28.75;15.85;;;;;;;12.87;81.12;102997.94;5087035;27;98089;-76
2023/12/17 04:16:45;;;;;;;23.38;15.50;;;;;;;13.01;80.21;102993.38;5082735;27;97603;-77
2023/12/17 04:19:11;;;;;;;25.98;15.05;;;;;;;13.11;79.65;102995.06;5079828;27;99227;-76
2023/12/17 04:21:38;;;;;;;23.08;14.73;;;;;;;13.12;79.50;102988.91;5086575;27;98805;-74
2023/12/17 04:24:06;;;;;;;28.52;16.05;;;;;;;12.94;80.13;102993.44;5083907;27;97862;-74
2023/12/17 04:26:32;;;;;;;28.35;15.95;;;;;;;12.91;80.83;102985.53;5086822;27;97117;-75
2023/12/17 04:28:59;;;;;;;29.15;16.92;;;;;;;12.93;80.83;102986.41;5082225;27;99033;-76
2023/12/17 04:31:25;;;;;;;26.42;15.48;;;;;;;12.90;80.41;102982.00;5078076;27;99249;-76
2023/12/17 04:33:51;;;;;;;26.67;16.58;;;;;;;13.05;80.41;102976.53;5082283;27;96791;-76
2023/12/17 04:36:18;;;;;;;27.55;15.93;;;;;;;12.70;81.68;102986.59;5085499;27;98826;-76
2023/12/17 04:38:46;;;;;;;24.05;15.43;;;;;;;12.93;81.18;102987.25;5077659;27;99018;-76
2023/12/17 04:41:14;;;;;;;24.15;15.25;;;;;;;13.03;80.49;102999.56;5084513;27;97686;-76
2023/12/17 04:43:40;;;;;;;23.63;15.43;;;;;;;12.64;82.22;102994.63;5081792;27;96986;-76
2023/12/17 04:46:07;;;;;;;27.95;15.48;;;;;;;12.63;82.99;102993.75;5081616;27;98927;-76
2023/12/17 04:48:33;;;;;;;25.52;15.07;;;;;;;12.74;81.81;102981.25;5088738;27;98983;-76
2023/12/17 04:51:00;;;;;;;25.73;15.48;;;;;;;12.88;81.01;102982.91;5085564;27;101928;-76
2023/12/17 04:53:26;;;;;;;27.10;16.20;;;;;;;13.15;80.15;102985.31;5075047;27;97655;-76
2023/12/17 04:55:53;;;;;;;23.17;15.65;;;;;;;13.14;79.52;102989.72;5085011;27;96923;-77
2023/12/17 04:58:20;;;;;;;24.38;15.40;;;;;;;12.87;80.54;102987.31;5083279;27;99028;-78
2023/12/17 05:00:47;;;;;;;26.83;15.93;;;;;;;12.88;81.09;102978.47;5083842;27;98777;-78
2023/12/17 05:03:13;;;;;;;29.42;15.27;;;;;;;12.99;80.29;102984.56;5079419;27;96968;-77
2023/12/17 05:05:39;;;;;;;26.48;15.02;;;;;;;12.88;80.80;102985.53;5083867;27;96849;-77
2023/12/17 05:08:06;;;;;;;26.45;15.20;;;;;;;12.67;82.08;102981.31;5077119;27;99409;-78
2023/12/17 05:10:32;;;;;;;25.92;15.70;;;;;;;12.87;81.30;102981.13;5075541;27;101115;-76
2023/12/17 05:12:58;;;;;;;26.90;15.25;;;;;;;12.69;82.20;102979.53;5073817;27;99010;-76
2023/12/17 05:15:26;;;;;;;30.45;15.43;;;;;;;12.89;80.78;102982.88;5082071;27;96890;-77
2023/12/17 05:17:53;;;;;;;22.38;13.80;;;;;;;12.79;81.75;102973.28;5075106;27;101666;-76
2023/12/17 05:20:19;;;;;;;27.38;14.90;;;;;;;13.02;80.67;102981.88;5080582;27;98821;-77
2023/12/17 05:22:45;;;;;;;21.33;14.27;;;;;;;13.18;79.57;102979.09;5077191;27;97444;-76
2023/12/17 05:25:12;;;;;;;25.40;14.02;;;;;;;13.19;78.86;102981.75;5075855;27;97219;-76
2023/12/17 05:27:38;;;;;;;23.45;14.25;;;;;;;13.14;79.01;102987.06;5077069;27;101218;-76
2023/12/17 05:30:06;;;;;;;20.95;14.25;;;;;;;13.28;78.56;102986.03;5086713;27;98754;-76
2023/12/17 05:32:34;;;;;;;24.38;15.43;;;;;;;13.01;79.79;102985.41;5082312;27;97163;-76
2023/12/17 05:35:01;;;;;;;19.92;13.85;;;;;;;13.07;79.79;102980.03;5072876;27;97054;-76
2023/12/17 05:37:27;;;;;;;22.98;15.23;;;;;;;12.88;80.01;102975.81;5086203;27;99197;-76
2023/12/17 05:39:54;;;;;;;21.88;13.77;;;;;;;13.05;79.74;102971.25;5075530;27;98734;-76
2023/12/17 05:42:20;;;;;;;21.58;13.80;;;;;;;12.92;80.04;102974.91;5077585;27;98663;-76
2023/12/17 05:44:46;;;;;;;25.77;14.10;;;;;;;12.97;80.08;102977.50;5085195;27;97766;-75
2023/12/17 05:47:13;;;;;;;22.20;14.07;;;;;;;12.98;79.80;102985.47;5072674;27;98475;-76
2023/12/17 05:49:41;;;;;;;21.80;13.38;;;;;;;12.82;80.37;102982.94;5086015;27;98811;-75
2023/12/17 05:52:08;;;;;;;18.98;12.80;;;;;;;12.76;80.70;102982.13;5076762;27;99396;-75
2023/12/17 05:54:35;;;;;;;20.70;13.80;;;;;;;12.52;82.03;102987.66;5079808;27;97075;-75
2023/12/17 05:57:01;;;;;;;21.80;13.52;;;;;;;12.67;81.49;102978.66;5081312;27;99014;-75
2023/12/17 05:59:28;;;;;;;23.05;13.55;;;;;;;12.57;81.86;102977.00;5076947;27;102191;-76
2023/12/17 06:01:54;;;;;;;20.30;13.02;;;;;;;12.51;81.93;102980.59;5076154;27;97045;-76
2023/12/17 06:04:21;;;;;;;23.75;13.88;;;;;;;12.49;82.30;102986.78;5080676;27;96927;-76
2023/12/17 06:06:49;;;;;;;18.88;13.27;;;;;;;12.58;82.02;102978.75;5075333;27;99091;-76
2023/12/17 06:09:16;;;;;;;20.58;13.02;;;;;;;12.70;80.70;102986.59;5069399;27;98773;-76
2023/12/17 06:11:42;;;;;;;21.63;13.23;;;;;;;12.75;80.68;102982.13;5074425;27;96807;-74
2023/12/17 06:14:08;;;;;;;20.05;12.77;;;;;;;12.85;80.39;102990.91;5085895;27;96880;-74
2023/12/17 06:16:40;;;;;;;19.98;12.75;;;;;;;13.16;78.80;102984.41;5074664;27;99602;-74
2023/12/17 06:19:07;;;;;;;17.58;12.55;;;;;;;12.97;78.88;102980.16;5076205;27;99025;-74
2023/12/17 06:21:33;;;;;;;19.27;13.30;;;;;;;12.70;80.18;102974.22;5084000;27;96924;-74
2023/12/17 06:24:02;;;;;;;16.25;11.65;;;;;;;12.55;80.74;102963.75;5080168;27;98220;-74
2023/12/17 06:26:28;;;;;;;17.50;11.40;;;;;;;12.33;81.71;102973.66;5076928;27;98974;-74
2023/12/17 06:28:55;;;;;;;18.48;11.70;;;;;;;12.61;81.14;102968.09;5074108;27;99345;-74
2023/12/17 06:31:22;;;;;;;18.13;12.35;;;;;;;12.77;80.35;102972.41;5078542;27;96666;-75
2023/12/17 06:33:49;;;;;;;18.50;12.05;;;;;;;12.88;79.24;102973.16;5079943;27;97254;-74
2023/12/17 06:36:16;;;;;;;18.13;12.25;;;;;;;12.64;80.02;102968.09;5080902;27;98964;-75
2023/12/17 06:38:42;;;;;;;17.48;11.23;;;;;;;12.50;80.48;102976.16;5074486;27;98768;-74
2023/12/17 06:41:10;;;;;;;18.20;11.52;;;;;;;12.85;79.24;102981.16;5080192;27;96826;-74
2023/12/17 06:43:37;;;;;;;17.77;11.45;;;;;;;12.90;78.68;102989.06;5077202;27;97440;-74
2023/12/17 06:46:04;;;;;;;17.60;10.77;;;;;;;12.77;79.14;102986.53;5077524;27;99139;-74
2023/12/17 06:48:30;;;;;;;19.75;11.15;;;;;;;12.67;79.57;102999.88;5081400;27;99059;-75
2023/12/17 06:50:57;;;;;;;16.92;11.35;;;;;;;12.46;80.84;103002.72;5075857;27;97166;-75
2023/12/17 06:53:23;;;;;;;17.13;10.13;;;;;;;12.70;79.66;103006.06;5074245;27;99941;-76
2023/12/17 06:55:50;;;;;;;15.48;10.48;;;;;;;12.82;78.72;103005.06;5084798;27;98845;-73
2023/12/17 06:58:17;;;;;;;16.65;11.52;;;;;;;12.53;80.30;103007.09;5074640;27;98232;-74
2023/12/17 07:00:44;;;;;;;16.52;10.95;;;;;;;12.73;79.16;103007.81;5083454;27;96776;-74
2023/12/17 07:03:10;;;;;;;15.93;11.25;;;;;;;12.77;79.08;103012.19;5082552;27;97709;-73
2023/12/17 07:05:36;;;;;;;16.15;10.30;;;;;;;12.54;79.89;103014.13;5075057;27;98858;-76
2023/12/17 07:08:04;;;;;;;17.15;10.32;;;;;;;12.63;79.64;103011.44;5076021;27;98808;-74
2023/12/17 07:10:30;;;;;;;17.25;11.23;;;;;;;12.75;78.95;103021.94;5087528;27;97104;-73
2023/12/17 07:12:56;;;;;;;15.88;9.57;;;;;;;12.76;78.42;103016.63;5081482;27;96826;-73
2023/12/17 07:15:24;;;;;;;14.43;9.88;;;;;;;12.93;77.29;103005.00;5085174;27;98926;-73
2023/12/17 07:17:51;;;;;;;13.25;10.02;;;;;;;12.94;77.77;102994.34;5088088;27;98891;-74
2023/12/17 07:20:17;;;;;;;13.02;9.80;;;;;;;13.07;76.95;102995.97;5080106;27;96730;-74
2023/12/17 07:22:44;;;;;;;22.35;10.32;;;;;;;13.12;76.38;102988.91;5087663;27;97342;-73
2023/12/17 07:25:11;;;;;;;15.75;9.57;;;;;;;13.02;76.61;102987.19;5086921;27;99491;-74
2023/12/17 07:27:37;;;;;;;14.95;9.38;;;;;;;12.81;77.38;102987.38;5073551;27;98873;-74
2023/12/17 07:30:04;;;;;;;13.85;9.80;;;;;;;12.77;77.70;102993.63;5085006;27;96788;-73
2023/12/17 07:32:32;;;;;;;13.77;9.52;;;;;;;13.06;76.64;102982.75;5082432;27;97459;-73
2023/12/17 07:34:58;;;;;;;11.18;7.60;;;;;;;12.56;77.77;102988.50;5087075;27;99428;-74
2023/12/17 07:37:24;;;;;;;14.10;9.20;;;;;;;12.80;77.84;102988.28;5080407;27;101825;-73
2023/12/17 07:39:51;;;;;;;13.90;9.13;;;;;;;12.20;79.95;103000.28;5086693;27;97173;-74
2023/12/17 07:42:18;;;;;;;12.82;8.43;;;;;;;12.55;78.78;103000.88;5084736;27;96911;-74
2023/12/17 07:44:44;;;;;;;12.57;8.48;;;;;;;12.73;77.69;102991.91;5084262;27;100390;-75
2023/12/17 07:47:10;;;;;;;12.63;9.02;;;;;;;12.66;78.06;102992.84;5082510;27;98913;-74
2023/12/17 07:49:38;;;;;;;14.07;8.13;;;;;;;12.68;77.69;102996.34;5073174;27;96796;-74
2023/12/17 07:52:05;;;;;;;13.75;8.57;;;;;;;12.52;78.51;103000.03;5081765;27;97350;-75
2023/12/17 07:54:32;;;;;;;11.00;8.15;;;;;;;12.65;77.63;102999.91;5082294;27;99402;-74
2023/12/17 07:56:58;;;;;;;10.07;8.00;;;;;;;12.81;76.62;103005.94;5078625;27;98771;-73
2023/12/17 07:59:25;;;;;;;9.77;7.63;;;;;;;12.37;78.52;103020.47;5072932;27;96868;-74
2023/12/17 08:01:52;;;;;;;11.95;8.02;;;;;;;12.37;78.63;103023.13;5082013;27;97746;-75
2023/12/17 08:04:18;;;;;;;12.50;8.07;;;;;;;12.35;78.72;103014.28;5078331;27;98899;-74
2023/12/17 08:06:46;;;;;;;11.50;8.10;;;;;;;12.77;77.06;103022.81;5079581;27;99257;-74
2023/12/17 08:09:13;;;;;;;10.73;7.90;;;;;;;12.64;76.90;103015.84;5078836;27;96848;-74
2023/12/17 08:11:39;;;;;;;10.98;7.88;;;;;;;12.57;77.08;103003.53;5082348;27;96874;-73
2023/12/17 08:14:05;;;;;;;12.10;7.88;;;;;;;12.61;76.80;103010.53;5083447;27;98705;-73
2023/12/17 08:16:32;;;;;;;8.65;7.20;;;;;;;12.68;77.04;103002.53;5081106;27;101199;-73
2023/12/17 08:18:58;;;;;;;10.35;7.35;;;;;;;12.84;75.69;103005.06;5084616;27;97045;-74
2023/12/17 08:21:24;;;;;;;9.88;7.82;;;;;;;12.77;75.90;103001.56;5077947;27;97892;-74
2023/12/17 08:23:52;;;;;;;11.60;7.60;;;;;;;13.00;75.33;103007.53;5084334;27;102525;-73
2023/12/17 08:26:19;;;;;;;11.93;7.78;;;;;;;12.84;74.96;103005.94;5084167;27;98985;-74
2023/12/17 08:28:46;;;;;;;12.43;7.50;;;;;;;13.28;73.72;103009.94;5078364;27;96741;-73
2023/12/17 08:31:12;;;;;;;9.05;7.20;;;;;;;13.32;73.01;103004.59;5078849;27;96727;-73
2023/12/17 08:33:39;;;;;;;10.60;7.40;;;;;;;13.42;72.83;103008.91;5075052;27;98868;-73
2023/12/17 08:36:06;;;;;;;9.57;6.85;;;;;;;13.54;72.16;103005.22;5077860;27;101753;-74
2023/12/17 08:38:32;;;;;;;11.68;7.85;;;;;;;13.42;72.43;103006.25;5079822;27;96667;-75
2023/12/17 08:41:01;;;;;;;12.00;7.60;;;;;;;13.41;72.68;103011.56;5079478;27;97868;-74
2023/12/17 08:43:27;;;;;;;12.18;7.05;;;;;;;13.38;72.08;103017.81;5073357;27;98906;-74
2023/12/17 08:45:53;;;;;;;9.55;7.47;;;;;;;13.57;71.41;103022.00;5074550;27;100228;-75
2023/12/17 08:48:20;;;;;;;8.02;6.47;;;;;;;13.37;71.98;103009.84;5062082;27;99694;-74
2023/12/17 08:50:46;;;;;;;9.20;6.43;;;;;;;13.07;73.80;103009.22;5072055;27;98499;-74
2023/12/17 08:53:12;;;;;;;10.13;7.15;;;;;;;13.21;72.86;103010.91;5084428;27;100643;-74
2023/12/17 08:55:39;;;;;;;9.93;7.50;;;;;;;13.17;73.05;103010.06;5078284;27;98978;-74
2023/12/17 08:58:07;;;;;;;10.00;7.45;;;;;;;13.15;73.23;103012.72;5084473;27;97088;-73
2023/12/17 09:00:34;;;;;;;10.40;7.25;;;;;;;13.21;72.89;103011.78;5086560;27;97037;-74
2023/12/17 09:03:02;;;;;;;10.45;7.32;;;;;;;13.38;72.28;103023.13;5083706;27;99305;-73
2023/12/17 09:05:28;;;;;;;9.57;7.65;;;;;;;13.28;72.64;103023.22;5093625;27;99620;-72
2023/12/17 09:07:55;;;;;;;9.18;7.28;;;;;;;13.30;72.43;103024.09;5081581;27;97554;-71
2023/12/17 09:10:23;;;;;;;9.98;7.32;;;;;;;13.44;71.81;103033.69;5082212;27;97075;-71
2023/12/17 09:12:50;;;;;;;11.02;7.13;;;;;;;13.58;71.44;103036.19;5085481;27;101535;-72
2023/12/17 09:15:18;;;;;;;10.25;6.72;;;;;;;13.47;71.60;103027.44;5086621;27;98886;-72
2023/12/17 09:17:44;;;;;;;11.70;6.97;;;;;;;13.36;71.18;103016.94;5083729;27;97935;-74
2023/12/17 09:20:11;;;;;;;8.90;6.75;;;;;;;13.09;73.08;103019.84;5085634;27;97197;-75
2023/12/17 09:22:38;;;;;;;9.40;7.18;;;;;;;13.05;73.52;103010.16;5082189;27;99512;-74
2023/12/17 09:25:06;;;;;;;9.10;6.28;;;;;;;13.42;72.09;103010.69;5079243;27;99034;-74
2023/12/17 09:27:33;;;;;;;8.90;7.60;;;;;;;13.53;71.43;103025.59;5083507;27;97177;-74
2023/12/17 09:29:59;;;;;;;8.93;6.50;;;;;;;13.66;70.42;103028.97;5089350;27;96943;-75
2023/12/17 09:32:30;;;;;;;7.50;6.38;;;;;;;13.72;70.28;103028.03;5080847;27;97674;-75
2023/12/17 09:34:57;;;;;;;9.45;6.53;;;;;;;13.77;70.05;103019.09;5080133;27;97644;-74
2023/12/17 09:37:23;;;;;;;9.77;7.35;;;;;;;13.64;70.25;103029.91;5086254;27;96721;-74
2023/12/17 09:39:49;;;;;;;8.40;6.95;;;;;;;13.34;71.33;103015.19;5077643;27;98418;-74
2023/12/17 09:42:19;;;;;;;7.75;6.32;;;;;;;13.38;71.43;103016.94;5077113;27;98491;-74
2023/12/17 09:44:46;;;;;;;11.05;7.20;;;;;;;13.41;71.63;103016.88;5084537;27;101753;-74
2023/12/17 09:47:12;;;;;;;9.32;7.07;;;;;;;13.68;70.22;103024.53;5076353;27;97236;-74
2023/12/17 09:49:40;;;;;;;10.48;7.25;;;;;;;13.56;70.31;103017.59;5082053;27;96879;-74
2023/12/17 09:52:12;;;;;;;10.65;7.45;;;;;;;13.54;70.53;103019.38;5075194;27;97848;-73
2023/12/17 09:54:39;;;;;;;8.30;6.05;;;;;;;13.69;69.76;103018.31;5077147;27;98764;-73
2023/12/17 09:57:07;;;;;;;9.80;6.10;;;;;;;13.73;69.65;103003.19;5077377;27;96810;-74
2023/12/17 09:59:34;;;;;;;9.32;6.82;;;;;;;13.82;69.30;102998.66;5074371;27;97288;-74
2023/12/17 10:02:01;;;;;;;9.57;6.88;;;;;;;13.76;69.26;103001.41;5080109;27;97601;-73
2023/12/17 10:04:27;;;;;;;9.52;6.65;;;;;;;13.50;70.09;102998.19;5077359;27;99709;-73
2023/12/17 10:06:55;;;;;;;8.75;6.28;;;;;;;13.26;71.62;102990.53;5077200;27;96871;-76
2023/12/17 10:09:21;;;;;;;9.27;6.50;;;;;;;13.52;70.66;103001.72;5078423;27;99244;-76
2023/12/17 10:11:48;;;;;;;8.65;6.28;;;;;;;13.20;72.12;103002.06;5071137;27;99070;-77
2023/12/17 10:14:25;;;;;;;8.85;6.50;;;;;;;13.01;72.87;102993.38;5073155;27;98784;-76
2023/12/17 10:16:52;;;;;;;9.05;5.95;;;;;;;13.36;71.70;102982.41;5076816;27;96951;-76
2023/12/17 10:19:18;;;;;;;8.10;6.55;;;;;;;13.37;71.04;102973.56;5079973;27;97575;-77
2023/12/17 10:21:46;;;;;;;8.43;6.22;;;;;;;13.25;71.80;102989.63;5080862;27;99351;-76
2023/12/17 10:24:13;;;;;;;7.60;6.03;;;;;;;12.93;73.56;102981.09;5082482;27;100959;-76
2023/12/17 10:26:44;;;;;;;6.57;5.55;;;;;;;12.85;73.75;102972.31;5081957;27;97071;-75
2023/12/17 10:29:13;;;;;;;7.10;5.70;;;;;;;12.55;75.41;102970.81;5081375;27;97238;-74
2023/12/17 10:31:42;;;;;;;7.28;5.90;;;;;;;13.21;72.77;102971.97;5082190;27;99020;-75
2023/12/17 10:34:15;;;;;;;9.63;6.47;;;;;;;13.40;71.08;102964.66;5072815;27;98895;-75
2023/12/17 10:36:42;;;;;;;7.68;5.85;;;;;;;13.02;72.97;102957.97;5077092;27;97862;-75
2023/12/17 10:39:10;;;;;;;8.57;5.65;;;;;;;13.42;71.33;102954.91;5079788;27;98703;-76
2023/12/17 10:41:40;;;;;;;8.18;5.82;;;;;;;13.68;70.00;102947.47;5075245;27;99366;-77
2023/12/17 10:44:09;;;;;;;8.85;6.18;;;;;;;13.61;70.48;102939.59;5081406;27;100677;-76
2023/12/17 10:46:36;;;;;;;7.30;5.65;;;;;;;13.60;70.29;102943.16;5077620;27;97380;-75
2023/12/17 10:49:06;;;;;;;8.45;5.72;;;;;;;13.16;71.61;102944.59;5077514;27;97212;-76
2023/12/17 10:51:34;;;;;;;8.75;5.72;;;;;;;13.37;71.51;102948.78;5082815;27;99184;-76
2023/12/17 10:54:01;;;;;;;6.72;5.80;;;;;;;13.49;71.25;102945.97;5074669;27;101208;-76
2023/12/17 10:56:30;;;;;;;8.63;6.35;;;;;;;13.41;70.79;102934.56;5081544;27;97448;-76
2023/12/17 10:58:57;;;;;;;7.75;6.07;;;;;;;12.78;73.83;102926.41;5081411;27;97116;-76
2023/12/17 11:01:26;;;;;;;9.32;6.30;;;;;;;13.18;72.49;102931.31;5081154;27;99242;-76
2023/12/17 11:03:53;;;;;;;11.48;6.55;;;;;;;13.58;70.37;102932.56;5083207;27;101394;-77
2023/12/17 11:06:21;;;;;;;6.95;5.85;;;;;;;13.98;68.99;102920.44;5080362;27;96842;-75
2023/12/17 11:08:51;;;;;;;6.90;5.70;;;;;;;13.98;68.57;102917.78;5080732;27;97471;-74
2023/12/17 11:11:17;;;;;;;7.22;5.97;;;;;;;13.83;68.86;102915.38;5078333;27;99277;-74